sensor_id;sensor_type;location;lat;lon;timestamp;temperature;humidity
79750;SHT31;69233;51.968;5.658;2023-04-29T00:01:21;13.6;68.0
79750;SHT31;69233;51.968;5.658;2023-04-29T00:03:51;13.6;67.6
79750;SHT31;69233;51.968;5.658;2023-04-29T00:06:20;13.6;67.7
79750;SHT31;69233;51.968;5.658;2023-04-29T00:08:50;13.6;67.8
79750;SHT31;69233;51.968;5.658;2023-04-29T00:11:20;13.6;68.2
79750;SHT31;69233;51.968;5.658;2023-04-29T00:13:49;13.6;68.1
79750;SHT31;69233;51.968;5.658;2023-04-29T00:16:19;13.6;68.3
79750;SHT31;69233;51.968;5.658;2023-04-29T00:18:49;13.6;68.1
79750;SHT31;69233;51.968;5.658;2023-04-29T00:21:19;13.6;68.5
79750;SHT31;69233;51.968;5.658;2023-04-29T00:23:49;13.6;68.2
79750;SHT31;69233;51.968;5.658;2023-04-29T00:26:18;13.6;68.5
79750;SHT31;69233;51.968;5.658;2023-04-29T00:28:48;13.6;69.0
79750;SHT31;69233;51.968;5.658;2023-04-29T00:31:17;13.6;69.0
79750;SHT31;69233;51.968;5.658;2023-04-29T00:33:48;13.6;68.9
79750;SHT31;69233;51.968;5.658;2023-04-29T00:36:17;13.6;69.1
79750;SHT31;69233;51.968;5.658;2023-04-29T00:38:47;13.6;69.2
79750;SHT31;69233;51.968;5.658;2023-04-29T00:41:18;13.6;69.0
79750;SHT31;69233;51.968;5.658;2023-04-29T00:43:49;13.6;69.1
79750;SHT31;69233;51.968;5.658;2023-04-29T00:46:19;13.6;69.3
79750;SHT31;69233;51.968;5.658;2023-04-29T00:48:48;13.6;69.3
79750;SHT31;69233;51.968;5.658;2023-04-29T00:51:18;13.6;69.2
79750;SHT31;69233;51.968;5.658;2023-04-29T00:53:48;13.6;69.4
79750;SHT31;69233;51.968;5.658;2023-04-29T00:56:18;13.5;69.5
79750;SHT31;69233;51.968;5.658;2023-04-29T00:58:48;13.5;69.3
79750;SHT31;69233;51.968;5.658;2023-04-29T01:01:19;13.5;69.0
79750;SHT31;69233;51.968;5.658;2023-04-29T01:03:50;13.5;69.4
79750;SHT31;69233;51.968;5.658;2023-04-29T01:06:28;13.5;69.2
79750;SHT31;69233;51.968;5.658;2023-04-29T01:09:13;13.5;69.2
79750;SHT31;69233;51.968;5.658;2023-04-29T01:11:57;13.5;69.3
79750;SHT31;69233;51.968;5.658;2023-04-29T01:14:32;13.5;69.7
79750;SHT31;69233;51.968;5.658;2023-04-29T01:17:05;13.5;69.5
79750;SHT31;69233;51.968;5.658;2023-04-29T01:19:44;13.5;69.2
79750;SHT31;69233;51.968;5.658;2023-04-29T01:22:15;13.5;69.7
79750;SHT31;69233;51.968;5.658;2023-04-29T01:24:46;13.5;69.7
79750;SHT31;69233;51.968;5.658;2023-04-29T01:27:26;13.5;69.5
79750;SHT31;69233;51.968;5.658;2023-04-29T01:30:03;13.5;69.7
79750;SHT31;69233;51.968;5.658;2023-04-29T01:32:45;13.5;69.4
79750;SHT31;69233;51.968;5.658;2023-04-29T01:35:32;13.5;69.6
79750;SHT31;69233;51.968;5.658;2023-04-29T01:38:14;13.5;69.6
79750;SHT31;69233;51.968;5.658;2023-04-29T01:40:48;13.5;69.7
79750;SHT31;69233;51.968;5.658;2023-04-29T01:43:28;13.5;69.4
79750;SHT31;69233;51.968;5.658;2023-04-29T01:45:58;13.5;69.4
79750;SHT31;69233;51.968;5.658;2023-04-29T01:48:28;13.5;69.8
79750;SHT31;69233;51.968;5.658;2023-04-29T01:50:59;13.5;69.3
79750;SHT31;69233;51.968;5.658;2023-04-29T01:53:30;13.5;69.5
79750;SHT31;69233;51.968;5.658;2023-04-29T01:56:00;13.5;69.4
79750;SHT31;69233;51.968;5.658;2023-04-29T01:58:29;13.5;69.3
79750;SHT31;69233;51.968;5.658;2023-04-29T02:00:58;13.5;69.1
79750;SHT31;69233;51.968;5.658;2023-04-29T02:03:28;13.5;69.4
79750;SHT31;69233;51.968;5.658;2023-04-29T02:05:58;13.5;69.6
79750;SHT31;69233;51.968;5.658;2023-04-29T02:08:27;13.5;69.3
79750;SHT31;69233;51.968;5.658;2023-04-29T02:10:58;13.5;69.5
79750;SHT31;69233;51.968;5.658;2023-04-29T02:13:30;13.5;69.3
79750;SHT31;69233;51.968;5.658;2023-04-29T02:16:08;13.5;69.4
79750;SHT31;69233;51.968;5.658;2023-04-29T02:18:38;13.5;69.2
79750;SHT31;69233;51.968;5.658;2023-04-29T02:21:08;13.5;68.8
79750;SHT31;69233;51.968;5.658;2023-04-29T02:23:38;13.4;68.9
79750;SHT31;69233;51.968;5.658;2023-04-29T02:26:08;13.4;69.2
79750;SHT31;69233;51.968;5.658;2023-04-29T02:28:38;13.4;68.8
79750;SHT31;69233;51.968;5.658;2023-04-29T02:31:09;13.4;69.3
79750;SHT31;69233;51.968;5.658;2023-04-29T02:33:41;13.4;68.8
79750;SHT31;69233;51.968;5.658;2023-04-29T02:36:10;13.4;68.7
79750;SHT31;69233;51.968;5.658;2023-04-29T02:38:40;13.4;68.7
79750;SHT31;69233;51.968;5.658;2023-04-29T02:41:10;13.3;69.0
79750;SHT31;69233;51.968;5.658;2023-04-29T02:43:44;13.3;68.5
79750;SHT31;69233;51.968;5.658;2023-04-29T02:46:15;13.3;68.6
79750;SHT31;69233;51.968;5.658;2023-04-29T02:48:45;13.3;68.9
79750;SHT31;69233;51.968;5.658;2023-04-29T02:51:15;13.3;68.9
79750;SHT31;69233;51.968;5.658;2023-04-29T02:53:44;13.3;68.9
79750;SHT31;69233;51.968;5.658;2023-04-29T02:56:14;13.2;68.9
79750;SHT31;69233;51.968;5.658;2023-04-29T02:58:43;13.2;69.3
79750;SHT31;69233;51.968;5.658;2023-04-29T03:01:13;13.2;69.3
79750;SHT31;69233;51.968;5.658;2023-04-29T03:03:42;13.2;68.8
79750;SHT31;69233;51.968;5.658;2023-04-29T03:06:14;13.2;69.2
79750;SHT31;69233;51.968;5.658;2023-04-29T03:08:44;13.2;69.1
79750;SHT31;69233;51.968;5.658;2023-04-29T03:11:13;13.2;69.1
79750;SHT31;69233;51.968;5.658;2023-04-29T03:13:43;13.2;69.1
79750;SHT31;69233;51.968;5.658;2023-04-29T03:16:12;13.2;69.3
79750;SHT31;69233;51.968;5.658;2023-04-29T03:18:43;13.2;69.4
79750;SHT31;69233;51.968;5.658;2023-04-29T03:21:13;13.2;69.1
79750;SHT31;69233;51.968;5.658;2023-04-29T03:23:42;13.2;69.5
79750;SHT31;69233;51.968;5.658;2023-04-29T03:26:12;13.2;69.3
79750;SHT31;69233;51.968;5.658;2023-04-29T03:28:42;13.2;69.7
79750;SHT31;69233;51.968;5.658;2023-04-29T03:31:11;13.2;69.1
79750;SHT31;69233;51.968;5.658;2023-04-29T03:33:42;13.2;69.3
79750;SHT31;69233;51.968;5.658;2023-04-29T03:36:12;13.2;69.0
79750;SHT31;69233;51.968;5.658;2023-04-29T03:38:41;13.2;68.7
79750;SHT31;69233;51.968;5.658;2023-04-29T03:41:11;13.2;69.3
79750;SHT31;69233;51.968;5.658;2023-04-29T03:43:41;13.2;68.8
79750;SHT31;69233;51.968;5.658;2023-04-29T03:46:11;13.2;68.8
79750;SHT31;69233;51.968;5.658;2023-04-29T03:48:41;13.2;68.8
79750;SHT31;69233;51.968;5.658;2023-04-29T03:51:10;13.2;68.8
79750;SHT31;69233;51.968;5.658;2023-04-29T03:53:40;13.2;68.6
79750;SHT31;69233;51.968;5.658;2023-04-29T03:56:10;13.2;68.7
79750;SHT31;69233;51.968;5.658;2023-04-29T03:58:39;13.2;68.8
79750;SHT31;69233;51.968;5.658;2023-04-29T04:01:09;13.2;68.6
79750;SHT31;69233;51.968;5.658;2023-04-29T04:03:38;13.1;68.8
79750;SHT31;69233;51.968;5.658;2023-04-29T04:06:11;13.1;68.9
79750;SHT31;69233;51.968;5.658;2023-04-29T04:08:41;13.1;69.2
79750;SHT31;69233;51.968;5.658;2023-04-29T04:11:11;13.1;69.4
79750;SHT31;69233;51.968;5.658;2023-04-29T04:13:41;13.1;69.0
79750;SHT31;69233;51.968;5.658;2023-04-29T04:16:11;13.1;69.1
79750;SHT31;69233;51.968;5.658;2023-04-29T04:18:41;13.1;68.9
79750;SHT31;69233;51.968;5.658;2023-04-29T04:21:11;13.1;69.1
79750;SHT31;69233;51.968;5.658;2023-04-29T04:23:43;13.1;69.2
79750;SHT31;69233;51.968;5.658;2023-04-29T04:26:12;13.1;69.5
79750;SHT31;69233;51.968;5.658;2023-04-29T04:28:42;13.1;69.4
79750;SHT31;69233;51.968;5.658;2023-04-29T04:31:12;13.1;69.2
79750;SHT31;69233;51.968;5.658;2023-04-29T04:33:42;13.1;69.1
79750;SHT31;69233;51.968;5.658;2023-04-29T04:36:11;13.1;68.8
79750;SHT31;69233;51.968;5.658;2023-04-29T04:38:41;13.1;68.9
79750;SHT31;69233;51.968;5.658;2023-04-29T04:41:10;13.1;69.2
79750;SHT31;69233;51.968;5.658;2023-04-29T04:43:40;13.1;69.1
79750;SHT31;69233;51.968;5.658;2023-04-29T04:46:14;13.1;68.6
79750;SHT31;69233;51.968;5.658;2023-04-29T04:48:44;13.0;68.8
79750;SHT31;69233;51.968;5.658;2023-04-29T04:51:13;13.0;69.1
79750;SHT31;69233;51.968;5.658;2023-04-29T04:53:43;13.0;69.3
79750;SHT31;69233;51.968;5.658;2023-04-29T04:56:12;13.0;69.4
79750;SHT31;69233;51.968;5.658;2023-04-29T04:58:42;13.0;69.5
79750;SHT31;69233;51.968;5.658;2023-04-29T05:01:12;13.0;69.3
79750;SHT31;69233;51.968;5.658;2023-04-29T05:03:42;13.0;69.5
79750;SHT31;69233;51.968;5.658;2023-04-29T05:06:11;13.0;68.7
79750;SHT31;69233;51.968;5.658;2023-04-29T05:08:41;13.0;68.8
79750;SHT31;69233;51.968;5.658;2023-04-29T05:11:16;13.0;68.5
79750;SHT31;69233;51.968;5.658;2023-04-29T05:13:47;13.0;68.8
79750;SHT31;69233;51.968;5.658;2023-04-29T05:16:17;13.0;68.1
79750;SHT31;69233;51.968;5.658;2023-04-29T05:18:46;13.0;68.9
79750;SHT31;69233;51.968;5.658;2023-04-29T05:21:18;13.0;68.4
79750;SHT31;69233;51.968;5.658;2023-04-29T05:23:49;13.0;68.5
79750;SHT31;69233;51.968;5.658;2023-04-29T05:26:19;13.0;68.4
79750;SHT31;69233;51.968;5.658;2023-04-29T05:28:48;13.0;68.6
79750;SHT31;69233;51.968;5.658;2023-04-29T05:31:18;13.0;68.6
79750;SHT31;69233;51.968;5.658;2023-04-29T05:33:47;13.0;68.8
79750;SHT31;69233;51.968;5.658;2023-04-29T05:36:17;13.0;67.7
79750;SHT31;69233;51.968;5.658;2023-04-29T05:38:47;13.1;67.8
79750;SHT31;69233;51.968;5.658;2023-04-29T05:41:16;13.1;67.9
79750;SHT31;69233;51.968;5.658;2023-04-29T05:43:46;13.1;68.7
79750;SHT31;69233;51.968;5.658;2023-04-29T05:46:15;13.1;68.3
79750;SHT31;69233;51.968;5.658;2023-04-29T05:48:46;13.1;68.1
79750;SHT31;69233;51.968;5.658;2023-04-29T05:51:16;13.1;68.1
79750;SHT31;69233;51.968;5.658;2023-04-29T05:53:46;13.1;68.4
79750;SHT31;69233;51.968;5.658;2023-04-29T05:56:15;13.2;67.2
79750;SHT31;69233;51.968;5.658;2023-04-29T05:58:45;13.2;68.3
79750;SHT31;69233;51.968;5.658;2023-04-29T06:01:15;13.2;67.6
79750;SHT31;69233;51.968;5.658;2023-04-29T06:03:45;13.2;67.8
79750;SHT31;69233;51.968;5.658;2023-04-29T06:06:15;13.3;67.9
79750;SHT31;69233;51.968;5.658;2023-04-29T06:08:44;13.3;67.9
79750;SHT31;69233;51.968;5.658;2023-04-29T06:11:14;13.3;68.1
79750;SHT31;69233;51.968;5.658;2023-04-29T06:13:44;13.3;67.9
79750;SHT31;69233;51.968;5.658;2023-04-29T06:16:14;13.4;67.8
79750;SHT31;69233;51.968;5.658;2023-04-29T06:18:43;13.4;67.9
79750;SHT31;69233;51.968;5.658;2023-04-29T06:21:13;13.4;68.7
79750;SHT31;69233;51.968;5.658;2023-04-29T06:23:43;13.5;67.5
79750;SHT31;69233;51.968;5.658;2023-04-29T06:26:12;13.5;68.3
79750;SHT31;69233;51.968;5.658;2023-04-29T06:28:42;13.6;68.3
79750;SHT31;69233;51.968;5.658;2023-04-29T06:31:11;13.6;69.3
79750;SHT31;69233;51.968;5.658;2023-04-29T06:33:41;13.6;67.4
79750;SHT31;69233;51.968;5.658;2023-04-29T06:36:11;13.7;66.5
79750;SHT31;69233;51.968;5.658;2023-04-29T06:38:40;13.7;68.2
79750;SHT31;69233;51.968;5.658;2023-04-29T06:41:10;13.8;66.7
79750;SHT31;69233;51.968;5.658;2023-04-29T06:43:40;13.8;67.6
79750;SHT31;69233;51.968;5.658;2023-04-29T06:46:10;13.8;67.2
79750;SHT31;69233;51.968;5.658;2023-04-29T06:48:42;13.9;67.0
79750;SHT31;69233;51.968;5.658;2023-04-29T06:51:12;13.9;66.7
79750;SHT31;69233;51.968;5.658;2023-04-29T06:53:42;13.9;66.4
79750;SHT31;69233;51.968;5.658;2023-04-29T06:56:13;14.0;66.9
79750;SHT31;69233;51.968;5.658;2023-04-29T06:58:44;14.0;67.3
79750;SHT31;69233;51.968;5.658;2023-04-29T07:01:14;14.0;66.6
79750;SHT31;69233;51.968;5.658;2023-04-29T07:03:43;14.1;66.6
79750;SHT31;69233;51.968;5.658;2023-04-29T07:06:15;14.1;66.5
79750;SHT31;69233;51.968;5.658;2023-04-29T07:08:44;14.2;65.8
79750;SHT31;69233;51.968;5.658;2023-04-29T07:11:14;14.2;65.1
79750;SHT31;69233;51.968;5.658;2023-04-29T07:13:44;14.2;64.8
79750;SHT31;69233;51.968;5.658;2023-04-29T07:16:16;14.3;64.7
79750;SHT31;69233;51.968;5.658;2023-04-29T07:18:47;14.3;64.8
79750;SHT31;69233;51.968;5.658;2023-04-29T07:21:17;14.3;65.4
79750;SHT31;69233;51.968;5.658;2023-04-29T07:23:47;14.4;64.7
79750;SHT31;69233;51.968;5.658;2023-04-29T07:26:17;14.4;66.1
79750;SHT31;69233;51.968;5.658;2023-04-29T07:28:48;14.5;62.7
79750;SHT31;69233;51.968;5.658;2023-04-29T07:31:17;14.5;64.3
79750;SHT31;69233;51.968;5.658;2023-04-29T07:33:47;14.6;64.7
79750;SHT31;69233;51.968;5.658;2023-04-29T07:36:17;14.6;64.8
79750;SHT31;69233;51.968;5.658;2023-04-29T07:38:46;14.7;64.1
79750;SHT31;69233;51.968;5.658;2023-04-29T07:41:16;14.8;64.0
79750;SHT31;69233;51.968;5.658;2023-04-29T07:43:45;14.8;64.3
79750;SHT31;69233;51.968;5.658;2023-04-29T07:46:15;14.9;62.2
79750;SHT31;69233;51.968;5.658;2023-04-29T07:48:44;15.0;62.1
79750;SHT31;69233;51.968;5.658;2023-04-29T07:51:14;15.1;62.1
79750;SHT31;69233;51.968;5.658;2023-04-29T07:53:44;15.1;61.2
79750;SHT31;69233;51.968;5.658;2023-04-29T07:56:13;15.2;59.7
79750;SHT31;69233;51.968;5.658;2023-04-29T07:58:43;15.2;60.1
79750;SHT31;69233;51.968;5.658;2023-04-29T08:01:12;15.2;60.1
79750;SHT31;69233;51.968;5.658;2023-04-29T08:03:42;15.2;60.0
79750;SHT31;69233;51.968;5.658;2023-04-29T08:06:12;15.3;59.5
79750;SHT31;69233;51.968;5.658;2023-04-29T08:08:41;15.3;60.6
79750;SHT31;69233;51.968;5.658;2023-04-29T08:11:16;15.3;60.8
79750;SHT31;69233;51.968;5.658;2023-04-29T08:13:47;15.4;59.4
79750;SHT31;69233;51.968;5.658;2023-04-29T08:16:16;15.4;60.1
79750;SHT31;69233;51.968;5.658;2023-04-29T08:18:48;15.5;60.1
79750;SHT31;69233;51.968;5.658;2023-04-29T08:21:17;15.5;59.2
79750;SHT31;69233;51.968;5.658;2023-04-29T08:23:47;15.6;59.4
79750;SHT31;69233;51.968;5.658;2023-04-29T08:26:17;15.6;58.5
79750;SHT31;69233;51.968;5.658;2023-04-29T08:28:46;15.6;59.8
79750;SHT31;69233;51.968;5.658;2023-04-29T08:31:19;15.7;60.3
79750;SHT31;69233;51.968;5.658;2023-04-29T08:33:49;15.8;60.8
79750;SHT31;69233;51.968;5.658;2023-04-29T08:36:19;15.9;61.0
79750;SHT31;69233;51.968;5.658;2023-04-29T08:38:48;16.0;58.3
79750;SHT31;69233;51.968;5.658;2023-04-29T08:41:19;16.1;57.6
79750;SHT31;69233;51.968;5.658;2023-04-29T08:43:49;16.2;59.5
79750;SHT31;69233;51.968;5.658;2023-04-29T08:46:21;16.3;59.0
79750;SHT31;69233;51.968;5.658;2023-04-29T08:48:54;16.4;55.8
79750;SHT31;69233;51.968;5.658;2023-04-29T08:51:24;16.4;56.4
79750;SHT31;69233;51.968;5.658;2023-04-29T08:53:55;16.5;57.8
79750;SHT31;69233;51.968;5.658;2023-04-29T08:56:25;16.6;60.0
79750;SHT31;69233;51.968;5.658;2023-04-29T08:58:56;16.8;57.4
79750;SHT31;69233;51.968;5.658;2023-04-29T09:01:29;17.0;59.4
79750;SHT31;69233;51.968;5.658;2023-04-29T09:04:11;17.3;55.4
79750;SHT31;69233;51.968;5.658;2023-04-29T09:06:44;17.6;53.4
79750;SHT31;69233;51.968;5.658;2023-04-29T09:09:14;17.7;51.3
79750;SHT31;69233;51.968;5.658;2023-04-29T09:11:45;17.8;51.6
79750;SHT31;69233;51.968;5.658;2023-04-29T09:14:17;17.8;50.2
79750;SHT31;69233;51.968;5.658;2023-04-29T09:16:47;17.8;50.6
79750;SHT31;69233;51.968;5.658;2023-04-29T09:19:30;17.8;49.6
79750;SHT31;69233;51.968;5.658;2023-04-29T09:22:03;17.8;50.4
79750;SHT31;69233;51.968;5.658;2023-04-29T09:24:34;17.8;50.5
79750;SHT31;69233;51.968;5.658;2023-04-29T09:27:04;17.7;50.8
79750;SHT31;69233;51.968;5.658;2023-04-29T09:29:35;17.7;52.0
79750;SHT31;69233;51.968;5.658;2023-04-29T09:32:19;17.7;49.8
79750;SHT31;69233;51.968;5.658;2023-04-29T09:34:49;17.6;50.6
79750;SHT31;69233;51.968;5.658;2023-04-29T09:37:25;17.6;49.7
79750;SHT31;69233;51.968;5.658;2023-04-29T09:39:55;17.5;52.0
79750;SHT31;69233;51.968;5.658;2023-04-29T09:42:25;17.5;53.1
79750;SHT31;69233;51.968;5.658;2023-04-29T09:44:55;17.5;53.1
79750;SHT31;69233;51.968;5.658;2023-04-29T09:47:30;17.5;51.6
79750;SHT31;69233;51.968;5.658;2023-04-29T09:50:11;17.5;51.6
79750;SHT31;69233;51.968;5.658;2023-04-29T09:52:42;17.5;50.8
79750;SHT31;69233;51.968;5.658;2023-04-29T09:55:12;17.6;50.8
79750;SHT31;69233;51.968;5.658;2023-04-29T09:57:43;17.6;50.8
79750;SHT31;69233;51.968;5.658;2023-04-29T10:00:13;17.6;50.4
79750;SHT31;69233;51.968;5.658;2023-04-29T10:02:45;17.6;50.5
79750;SHT31;69233;51.968;5.658;2023-04-29T10:05:16;17.7;52.3
79750;SHT31;69233;51.968;5.658;2023-04-29T10:07:47;17.7;50.2
79750;SHT31;69233;51.968;5.658;2023-04-29T10:10:22;17.8;50.0
79750;SHT31;69233;51.968;5.658;2023-04-29T10:12:54;17.9;50.9
79750;SHT31;69233;51.968;5.658;2023-04-29T10:15:34;18.0;49.5
79750;SHT31;69233;51.968;5.658;2023-04-29T10:18:16;18.2;50.1
79750;SHT31;69233;51.968;5.658;2023-04-29T10:20:47;18.2;47.8
79750;SHT31;69233;51.968;5.658;2023-04-29T10:23:19;18.3;50.0
79750;SHT31;69233;51.968;5.658;2023-04-29T10:25:52;18.3;48.3
79750;SHT31;69233;51.968;5.658;2023-04-29T10:28:23;18.4;48.2
79750;SHT31;69233;51.968;5.658;2023-04-29T10:30:55;18.4;47.5
79750;SHT31;69233;51.968;5.658;2023-04-29T10:33:31;18.4;48.0
79750;SHT31;69233;51.968;5.658;2023-04-29T10:36:02;18.4;49.4
79750;SHT31;69233;51.968;5.658;2023-04-29T10:38:38;18.5;49.5
79750;SHT31;69233;51.968;5.658;2023-04-29T10:41:18;18.7;51.5
79750;SHT31;69233;51.968;5.658;2023-04-29T10:43:51;19.0;46.6
79750;SHT31;69233;51.968;5.658;2023-04-29T10:46:22;19.2;45.8
79750;SHT31;69233;51.968;5.658;2023-04-29T10:48:56;19.3;47.8
79750;SHT31;69233;51.968;5.658;2023-04-29T10:51:31;19.4;47.5
79750;SHT31;69233;51.968;5.658;2023-04-29T10:54:06;19.5;49.6
79750;SHT31;69233;51.968;5.658;2023-04-29T10:56:42;19.6;45.9
79750;SHT31;69233;51.968;5.658;2023-04-29T10:59:14;19.7;44.5
79750;SHT31;69233;51.968;5.658;2023-04-29T11:01:46;19.7;45.3
79750;SHT31;69233;51.968;5.658;2023-04-29T11:04:18;19.7;44.7
79750;SHT31;69233;51.968;5.658;2023-04-29T11:06:51;19.7;43.6
79750;SHT31;69233;51.968;5.658;2023-04-29T11:09:24;19.7;44.9
79750;SHT31;69233;51.968;5.658;2023-04-29T11:11:59;19.6;45.0
79750;SHT31;69233;51.968;5.658;2023-04-29T11:14:34;19.6;45.0
79750;SHT31;69233;51.968;5.658;2023-04-29T11:17:07;19.6;47.7
79750;SHT31;69233;51.968;5.658;2023-04-29T11:19:40;19.7;48.4
79750;SHT31;69233;51.968;5.658;2023-04-29T11:22:25;20.1;46.0
79750;SHT31;69233;51.968;5.658;2023-04-29T11:24:57;20.6;47.0
79750;SHT31;69233;51.968;5.658;2023-04-29T11:27:30;21.1;44.6
79750;SHT31;69233;51.968;5.658;2023-04-29T11:30:01;21.6;41.3
79750;SHT31;69233;51.968;5.658;2023-04-29T11:32:33;22.1;43.1
79750;SHT31;69233;51.968;5.658;2023-04-29T11:35:10;22.6;41.1
79750;SHT31;69233;51.968;5.658;2023-04-29T11:37:43;22.8;38.2
79750;SHT31;69233;51.968;5.658;2023-04-29T11:40:14;22.9;39.7
79750;SHT31;69233;51.968;5.658;2023-04-29T11:42:45;22.9;37.4
79750;SHT31;69233;51.968;5.658;2023-04-29T11:45:16;22.9;39.2
79750;SHT31;69233;51.968;5.658;2023-04-29T11:47:47;22.9;40.5
79750;SHT31;69233;51.968;5.658;2023-04-29T11:50:17;22.8;37.2
79750;SHT31;69233;51.968;5.658;2023-04-29T11:52:48;22.7;37.3
79750;SHT31;69233;51.968;5.658;2023-04-29T11:55:18;22.5;37.1
79750;SHT31;69233;51.968;5.658;2023-04-29T11:57:49;22.3;38.2
79750;SHT31;69233;51.968;5.658;2023-04-29T12:00:19;22.1;39.0
79750;SHT31;69233;51.968;5.658;2023-04-29T12:02:49;21.9;37.7
79750;SHT31;69233;51.968;5.658;2023-04-29T12:05:18;21.8;39.0
79750;SHT31;69233;51.968;5.658;2023-04-29T12:07:50;21.6;40.6
79750;SHT31;69233;51.968;5.658;2023-04-29T12:10:20;21.5;43.0
79750;SHT31;69233;51.968;5.658;2023-04-29T12:12:50;21.5;43.7
79750;SHT31;69233;51.968;5.658;2023-04-29T12:15:20;21.6;42.0
79750;SHT31;69233;51.968;5.658;2023-04-29T12:17:50;21.8;40.7
79750;SHT31;69233;51.968;5.658;2023-04-29T12:20:20;22.0;40.5
79750;SHT31;69233;51.968;5.658;2023-04-29T12:22:50;22.1;40.4
79750;SHT31;69233;51.968;5.658;2023-04-29T12:25:24;22.2;39.3
79750;SHT31;69233;51.968;5.658;2023-04-29T12:27:58;22.2;37.8
79750;SHT31;69233;51.968;5.658;2023-04-29T12:30:28;22.2;40.8
79750;SHT31;69233;51.968;5.658;2023-04-29T12:32:57;22.2;42.7
79750;SHT31;69233;51.968;5.658;2023-04-29T12:35:27;22.4;41.4
79750;SHT31;69233;51.968;5.658;2023-04-29T12:38:00;23.1;39.4
79750;SHT31;69233;51.968;5.658;2023-04-29T12:40:30;23.7;38.7
79750;SHT31;69233;51.968;5.658;2023-04-29T12:43:09;24.0;34.1
79750;SHT31;69233;51.968;5.658;2023-04-29T12:45:39;24.0;35.9
79750;SHT31;69233;51.968;5.658;2023-04-29T12:48:10;24.1;35.4
79750;SHT31;69233;51.968;5.658;2023-04-29T12:50:40;24.1;34.2
79750;SHT31;69233;51.968;5.658;2023-04-29T12:53:10;24.0;37.4
79750;SHT31;69233;51.968;5.658;2023-04-29T12:55:39;24.0;34.1
79750;SHT31;69233;51.968;5.658;2023-04-29T12:58:09;23.9;35.2
79750;SHT31;69233;51.968;5.658;2023-04-29T13:00:38;23.9;35.3
79750;SHT31;69233;51.968;5.658;2023-04-29T13:03:08;23.8;36.2
79750;SHT31;69233;51.968;5.658;2023-04-29T13:05:38;23.8;36.0
79750;SHT31;69233;51.968;5.658;2023-04-29T13:08:07;23.7;37.2
79750;SHT31;69233;51.968;5.658;2023-04-29T13:10:37;23.6;36.2
79750;SHT31;69233;51.968;5.658;2023-04-29T13:13:09;23.4;36.8
79750;SHT31;69233;51.968;5.658;2023-04-29T13:15:38;23.4;39.1
79750;SHT31;69233;51.968;5.658;2023-04-29T13:18:09;23.4;38.2
79750;SHT31;69233;51.968;5.658;2023-04-29T13:20:40;23.4;39.4
79750;SHT31;69233;51.968;5.658;2023-04-29T13:23:09;23.4;39.1
79750;SHT31;69233;51.968;5.658;2023-04-29T13:25:40;23.4;38.8
79750;SHT31;69233;51.968;5.658;2023-04-29T13:28:09;23.4;36.0
79750;SHT31;69233;51.968;5.658;2023-04-29T13:30:39;23.3;36.0
79750;SHT31;69233;51.968;5.658;2023-04-29T13:33:09;23.3;36.0
79750;SHT31;69233;51.968;5.658;2023-04-29T13:35:39;23.2;36.5
79750;SHT31;69233;51.968;5.658;2023-04-29T13:38:09;23.1;38.1
79750;SHT31;69233;51.968;5.658;2023-04-29T13:40:38;23.1;37.0
79750;SHT31;69233;51.968;5.658;2023-04-29T13:43:10;23.1;36.5
79750;SHT31;69233;51.968;5.658;2023-04-29T13:45:39;23.0;36.2
79750;SHT31;69233;51.968;5.658;2023-04-29T13:48:09;22.9;35.4
79750;SHT31;69233;51.968;5.658;2023-04-29T13:50:39;22.8;35.7
79750;SHT31;69233;51.968;5.658;2023-04-29T13:53:08;22.8;35.6
79750;SHT31;69233;51.968;5.658;2023-04-29T13:55:38;22.6;36.3
79750;SHT31;69233;51.968;5.658;2023-04-29T13:58:08;22.5;37.7
79750;SHT31;69233;51.968;5.658;2023-04-29T14:00:37;22.4;38.1
79750;SHT31;69233;51.968;5.658;2023-04-29T14:03:07;22.2;38.8
79750;SHT31;69233;51.968;5.658;2023-04-29T14:05:36;22.2;41.8
79750;SHT31;69233;51.968;5.658;2023-04-29T14:08:06;22.2;43.4
79750;SHT31;69233;51.968;5.658;2023-04-29T14:10:36;22.3;41.3
79750;SHT31;69233;51.968;5.658;2023-04-29T14:13:05;22.5;38.2
79750;SHT31;69233;51.968;5.658;2023-04-29T14:15:35;22.7;39.1
79750;SHT31;69233;51.968;5.658;2023-04-29T14:18:04;22.9;41.3
79750;SHT31;69233;51.968;5.658;2023-04-29T14:20:35;23.0;39.8
79750;SHT31;69233;51.968;5.658;2023-04-29T14:23:05;23.1;39.0
79750;SHT31;69233;51.968;5.658;2023-04-29T14:25:35;23.2;35.8
79750;SHT31;69233;51.968;5.658;2023-04-29T14:28:05;23.2;37.4
79750;SHT31;69233;51.968;5.658;2023-04-29T14:30:35;23.2;39.8
79750;SHT31;69233;51.968;5.658;2023-04-29T14:33:04;23.4;37.7
79750;SHT31;69233;51.968;5.658;2023-04-29T14:35:34;23.6;37.5
79750;SHT31;69233;51.968;5.658;2023-04-29T14:38:03;24.0;41.1
79750;SHT31;69233;51.968;5.658;2023-04-29T14:40:33;24.6;39.9
79750;SHT31;69233;51.968;5.658;2023-04-29T14:43:03;25.5;35.6
79750;SHT31;69233;51.968;5.658;2023-04-29T14:45:33;26.4;34.8
79750;SHT31;69233;51.968;5.658;2023-04-29T14:48:04;27.3;31.7
79750;SHT31;69233;51.968;5.658;2023-04-29T14:50:34;27.8;32.7
79750;SHT31;69233;51.968;5.658;2023-04-29T14:53:03;28.3;30.0
79750;SHT31;69233;51.968;5.658;2023-04-29T14:55:35;28.5;32.2
79750;SHT31;69233;51.968;5.658;2023-04-29T14:58:05;28.6;32.8
79750;SHT31;69233;51.968;5.658;2023-04-29T15:00:36;28.9;31.1
79750;SHT31;69233;51.968;5.658;2023-04-29T15:03:06;29.0;30.3
79750;SHT31;69233;51.968;5.658;2023-04-29T15:05:35;29.2;30.4
79750;SHT31;69233;51.968;5.658;2023-04-29T15:08:05;29.4;31.0
79750;SHT31;69233;51.968;5.658;2023-04-29T15:10:35;29.4;30.0
79750;SHT31;69233;51.968;5.658;2023-04-29T15:13:05;29.5;29.4
79750;SHT31;69233;51.968;5.658;2023-04-29T15:15:34;29.6;30.9
79750;SHT31;69233;51.968;5.658;2023-04-29T15:18:04;29.6;30.6
79750;SHT31;69233;51.968;5.658;2023-04-29T15:20:36;29.7;27.9
79750;SHT31;69233;51.968;5.658;2023-04-29T15:23:06;29.7;27.8
79750;SHT31;69233;51.968;5.658;2023-04-29T15:25:38;29.6;27.7
79750;SHT31;69233;51.968;5.658;2023-04-29T15:28:08;29.2;27.6
79750;SHT31;69233;51.968;5.658;2023-04-29T15:30:37;28.7;28.9
79750;SHT31;69233;51.968;5.658;2023-04-29T15:33:07;28.1;29.4
79750;SHT31;69233;51.968;5.658;2023-04-29T15:35:38;27.7;30.5
79750;SHT31;69233;51.968;5.658;2023-04-29T15:38:07;27.2;30.4
79750;SHT31;69233;51.968;5.658;2023-04-29T15:40:38;26.8;30.6
79750;SHT31;69233;51.968;5.658;2023-04-29T15:43:08;26.3;31.4
79750;SHT31;69233;51.968;5.658;2023-04-29T15:45:37;26.0;31.5
79750;SHT31;69233;51.968;5.658;2023-04-29T15:48:09;25.7;33.0
79750;SHT31;69233;51.968;5.658;2023-04-29T15:50:38;25.6;31.5
79750;SHT31;69233;51.968;5.658;2023-04-29T15:53:08;25.5;31.7
79750;SHT31;69233;51.968;5.658;2023-04-29T15:55:38;25.4;32.1
79750;SHT31;69233;51.968;5.658;2023-04-29T15:58:08;25.4;32.1
79750;SHT31;69233;51.968;5.658;2023-04-29T16:00:37;25.3;32.0
79750;SHT31;69233;51.968;5.658;2023-04-29T16:03:07;25.2;32.2
79750;SHT31;69233;51.968;5.658;2023-04-29T16:05:37;25.0;32.8
79750;SHT31;69233;51.968;5.658;2023-04-29T16:08:07;24.9;32.6
79750;SHT31;69233;51.968;5.658;2023-04-29T16:10:38;24.7;32.3
79750;SHT31;69233;51.968;5.658;2023-04-29T16:13:08;24.4;33.2
79750;SHT31;69233;51.968;5.658;2023-04-29T16:15:38;24.0;34.0
79750;SHT31;69233;51.968;5.658;2023-04-29T16:18:07;23.7;33.9
79750;SHT31;69233;51.968;5.658;2023-04-29T16:20:37;23.4;33.8
79750;SHT31;69233;51.968;5.658;2023-04-29T16:23:08;23.1;34.7
79750;SHT31;69233;51.968;5.658;2023-04-29T16:25:38;22.8;35.4